sensor_id;sensor_type;location;lat;lon;timestamp;temperature;humidity
40257;DHT22;25977;45.462;9.210;2023-12-04T00:00:36;7.60;83.40
40257;DHT22;25977;45.462;9.210;2023-12-04T00:03:02;7.60;83.50
40257;DHT22;25977;45.462;9.210;2023-12-04T00:05:27;7.70;83.70
40257;DHT22;25977;45.462;9.210;2023-12-04T00:07:53;7.60;83.60
40257;DHT22;25977;45.462;9.210;2023-12-04T00:10:19;7.60;83.80
40257;DHT22;25977;45.462;9.210;2023-12-04T00:12:45;7.60;83.40
40257;DHT22;25977;45.462;9.210;2023-12-04T00:15:11;7.60;83.50
40257;DHT22;25977;45.462;9.210;2023-12-04T00:17:36;7.50;83.30
40257;DHT22;25977;45.462;9.210;2023-12-04T00:20:07;7.40;83.40
40257;DHT22;25977;45.462;9.210;2023-12-04T00:22:33;7.40;83.60
40257;DHT22;25977;45.462;9.210;2023-12-04T00:24:59;7.30;83.50
40257;DHT22;25977;45.462;9.210;2023-12-04T00:27:24;7.20;83.50
40257;DHT22;25977;45.462;9.210;2023-12-04T00:29:55;7.20;83.60
40257;DHT22;25977;45.462;9.210;2023-12-04T00:32:21;7.20;83.60
40257;DHT22;25977;45.462;9.210;2023-12-04T00:34:47;7.20;83.80
40257;DHT22;25977;45.462;9.210;2023-12-04T00:37:12;7.10;83.80
40257;DHT22;25977;45.462;9.210;2023-12-04T00:39:38;7.10;83.80
40257;DHT22;25977;45.462;9.210;2023-12-04T00:42:04;7.10;83.80
40257;DHT22;25977;45.462;9.210;2023-12-04T00:44:30;7.10;83.80
40257;DHT22;25977;45.462;9.210;2023-12-04T00:46:55;7.00;83.90
40257;DHT22;25977;45.462;9.210;2023-12-04T00:49:21;7.00;84.00
40257;DHT22;25977;45.462;9.210;2023-12-04T00:51:50;7.00;84.00
40257;DHT22;25977;45.462;9.210;2023-12-04T00:54:15;6.90;84.00
40257;DHT22;25977;45.462;9.210;2023-12-04T00:56:41;6.90;84.20
40257;DHT22;25977;45.462;9.210;2023-12-04T00:59:08;6.90;84.50
40257;DHT22;25977;45.462;9.210;2023-12-04T01:01:35;7.00;84.40
40257;DHT22;25977;45.462;9.210;2023-12-04T01:04:01;7.00;84.30
40257;DHT22;25977;45.462;9.210;2023-12-04T01:06:27;7.10;84.10
40257;DHT22;25977;45.462;9.210;2023-12-04T01:08:54;7.00;83.80
40257;DHT22;25977;45.462;9.210;2023-12-04T01:11:19;7.00;83.90
40257;DHT22;25977;45.462;9.210;2023-12-04T01:13:45;7.00;84.00
40257;DHT22;25977;45.462;9.210;2023-12-04T01:16:11;7.00;83.80
40257;DHT22;25977;45.462;9.210;2023-12-04T01:18:37;7.00;83.90
40257;DHT22;25977;45.462;9.210;2023-12-04T01:21:05;7.00;83.70
40257;DHT22;25977;45.462;9.210;2023-12-04T01:23:31;7.00;83.80
40257;DHT22;25977;45.462;9.210;2023-12-04T01:25:57;7.00;83.80
40257;DHT22;25977;45.462;9.210;2023-12-04T01:28:23;7.00;83.90
40257;DHT22;25977;45.462;9.210;2023-12-04T01:30:49;6.90;84.00
40257;DHT22;25977;45.462;9.210;2023-12-04T01:33:14;6.90;84.00
40257;DHT22;25977;45.462;9.210;2023-12-04T01:35:40;6.80;84.30
40257;DHT22;25977;45.462;9.210;2023-12-04T01:38:05;6.80;84.30
40257;DHT22;25977;45.462;9.210;2023-12-04T01:40:31;6.90;84.30
40257;DHT22;25977;45.462;9.210;2023-12-04T01:42:57;6.90;84.40
40257;DHT22;25977;45.462;9.210;2023-12-04T01:45:23;6.90;84.30
40257;DHT22;25977;45.462;9.210;2023-12-04T01:47:48;6.90;84.20
40257;DHT22;25977;45.462;9.210;2023-12-04T01:50:14;6.90;84.10
40257;DHT22;25977;45.462;9.210;2023-12-04T01:52:41;7.00;84.30
40257;DHT22;25977;45.462;9.210;2023-12-04T01:55:09;6.90;84.10
40257;DHT22;25977;45.462;9.210;2023-12-04T01:57:36;6.90;84.20
40257;DHT22;25977;45.462;9.210;2023-12-04T02:00:02;6.90;84.60
40257;DHT22;25977;45.462;9.210;2023-12-04T02:02:40;6.90;84.30
40257;DHT22;25977;45.462;9.210;2023-12-04T02:05:11;6.90;84.40
40257;DHT22;25977;45.462;9.210;2023-12-04T02:07:40;6.90;84.30
40257;DHT22;25977;45.462;9.210;2023-12-04T02:10:06;6.80;84.40
40257;DHT22;25977;45.462;9.210;2023-12-04T02:12:32;6.80;84.60
40257;DHT22;25977;45.462;9.210;2023-12-04T02:14:58;6.80;84.60
40257;DHT22;25977;45.462;9.210;2023-12-04T02:17:24;6.80;84.80
40257;DHT22;25977;45.462;9.210;2023-12-04T02:19:52;6.80;84.70
40257;DHT22;25977;45.462;9.210;2023-12-04T02:22:21;6.80;84.60
40257;DHT22;25977;45.462;9.210;2023-12-04T02:24:47;6.80;84.80
40257;DHT22;25977;45.462;9.210;2023-12-04T02:27:20;6.70;84.80
40257;DHT22;25977;45.462;9.210;2023-12-04T02:29:50;6.80;84.90
40257;DHT22;25977;45.462;9.210;2023-12-04T02:32:18;6.70;85.00
40257;DHT22;25977;45.462;9.210;2023-12-04T02:34:46;6.70;84.90
40257;DHT22;25977;45.462;9.210;2023-12-04T02:37:15;6.70;85.00
40257;DHT22;25977;45.462;9.210;2023-12-04T02:39:42;6.60;85.10
40257;DHT22;25977;45.462;9.210;2023-12-04T02:42:08;6.60;85.20
40257;DHT22;25977;45.462;9.210;2023-12-04T02:44:34;6.70;85.20
40257;DHT22;25977;45.462;9.210;2023-12-04T02:47:00;6.60;85.20
40257;DHT22;25977;45.462;9.210;2023-12-04T02:49:25;6.60;85.20
40257;DHT22;25977;45.462;9.210;2023-12-04T02:51:51;6.60;85.20
40257;DHT22;25977;45.462;9.210;2023-12-04T02:54:17;6.60;85.20
40257;DHT22;25977;45.462;9.210;2023-12-04T02:56:42;6.60;85.30
40257;DHT22;25977;45.462;9.210;2023-12-04T02:59:08;6.60;85.20
40257;DHT22;25977;45.462;9.210;2023-12-04T03:01:34;6.60;85.40
40257;DHT22;25977;45.462;9.210;2023-12-04T03:03:59;6.60;85.40
40257;DHT22;25977;45.462;9.210;2023-12-04T03:06:25;6.60;85.50
40257;DHT22;25977;45.462;9.210;2023-12-04T03:08:51;6.50;85.60
40257;DHT22;25977;45.462;9.210;2023-12-04T03:11:16;6.50;85.60
40257;DHT22;25977;45.462;9.210;2023-12-04T03:13:42;6.50;85.70
40257;DHT22;25977;45.462;9.210;2023-12-04T03:16:17;6.50;85.80
40257;DHT22;25977;45.462;9.210;2023-12-04T03:18:44;6.50;85.80
40257;DHT22;25977;45.462;9.210;2023-12-04T03:21:09;6.50;85.80
40257;DHT22;25977;45.462;9.210;2023-12-04T03:23:35;6.60;85.80
40257;DHT22;25977;45.462;9.210;2023-12-04T03:26:00;6.60;85.70
40257;DHT22;25977;45.462;9.210;2023-12-04T03:28:26;6.60;85.80
40257;DHT22;25977;45.462;9.210;2023-12-04T03:30:52;6.60;85.80
40257;DHT22;25977;45.462;9.210;2023-12-04T03:33:17;6.60;85.70
40257;DHT22;25977;45.462;9.210;2023-12-04T03:35:43;6.60;85.60
40257;DHT22;25977;45.462;9.210;2023-12-04T03:38:09;6.60;85.60
40257;DHT22;25977;45.462;9.210;2023-12-04T03:40:35;6.50;85.70
40257;DHT22;25977;45.462;9.210;2023-12-04T03:43:00;6.60;85.80
40257;DHT22;25977;45.462;9.210;2023-12-04T03:45:26;6.60;86.00
40257;DHT22;25977;45.462;9.210;2023-12-04T03:47:53;6.60;85.90
40257;DHT22;25977;45.462;9.210;2023-12-04T03:50:18;6.50;85.90
40257;DHT22;25977;45.462;9.210;2023-12-04T03:52:44;6.30;86.80
40257;DHT22;25977;45.462;9.210;2023-12-04T03:55:10;6.40;86.30
40257;DHT22;25977;45.462;9.210;2023-12-04T03:57:35;6.50;86.20
40257;DHT22;25977;45.462;9.210;2023-12-04T04:00:01;6.60;86.00
40257;DHT22;25977;45.462;9.210;2023-12-04T04:02:38;6.50;85.80
40257;DHT22;25977;45.462;9.210;2023-12-04T04:05:04;6.50;86.10
40257;DHT22;25977;45.462;9.210;2023-12-04T04:07:30;6.50;86.10
40257;DHT22;25977;45.462;9.210;2023-12-04T04:09:57;6.60;85.80
40257;DHT22;25977;45.462;9.210;2023-12-04T04:12:23;6.50;85.60
40257;DHT22;25977;45.462;9.210;2023-12-04T04:14:48;6.60;86.20
40257;DHT22;25977;45.462;9.210;2023-12-04T04:17:14;6.50;85.60
40257;DHT22;25977;45.462;9.210;2023-12-04T04:19:41;6.50;85.80
40257;DHT22;25977;45.462;9.210;2023-12-04T04:22:06;6.70;85.80
40257;DHT22;25977;45.462;9.210;2023-12-04T04:24:32;6.70;85.60
40257;DHT22;25977;45.462;9.210;2023-12-04T04:26:58;6.80;85.40
40257;DHT22;25977;45.462;9.210;2023-12-04T04:29:23;6.80;85.30
40257;DHT22;25977;45.462;9.210;2023-12-04T04:31:49;6.90;85.30
40257;DHT22;25977;45.462;9.210;2023-12-04T04:34:15;6.90;85.20
40257;DHT22;25977;45.462;9.210;2023-12-04T04:36:42;6.90;85.10
40257;DHT22;25977;45.462;9.210;2023-12-04T04:39:08;6.90;85.20
40257;DHT22;25977;45.462;9.210;2023-12-04T04:41:36;6.90;85.00
40257;DHT22;25977;45.462;9.210;2023-12-04T04:44:01;6.80;85.00
40257;DHT22;25977;45.462;9.210;2023-12-04T04:46:27;6.90;85.20
40257;DHT22;25977;45.462;9.210;2023-12-04T04:48:54;6.90;85.30
40257;DHT22;25977;45.462;9.210;2023-12-04T04:51:19;6.90;85.10
40257;DHT22;25977;45.462;9.210;2023-12-04T04:53:45;6.90;85.00
40257;DHT22;25977;45.462;9.210;2023-12-04T04:56:10;6.90;84.80
40257;DHT22;25977;45.462;9.210;2023-12-04T04:58:36;6.90;84.90
40257;DHT22;25977;45.462;9.210;2023-12-04T05:01:02;6.90;84.90
40257;DHT22;25977;45.462;9.210;2023-12-04T05:03:28;6.90;85.00
40257;DHT22;25977;45.462;9.210;2023-12-04T05:05:54;6.90;85.00
40257;DHT22;25977;45.462;9.210;2023-12-04T05:08:19;6.90;85.00
40257;DHT22;25977;45.462;9.210;2023-12-04T05:10:45;6.90;85.00
40257;DHT22;25977;45.462;9.210;2023-12-04T05:13:11;7.00;85.00
40257;DHT22;25977;45.462;9.210;2023-12-04T05:15:36;7.00;85.10
40257;DHT22;25977;45.462;9.210;2023-12-04T05:18:02;7.00;85.00
40257;DHT22;25977;45.462;9.210;2023-12-04T05:20:27;7.00;84.90
40257;DHT22;25977;45.462;9.210;2023-12-04T05:22:53;7.00;84.90
40257;DHT22;25977;45.462;9.210;2023-12-04T05:25:19;7.00;85.10
40257;DHT22;25977;45.462;9.210;2023-12-04T05:27:45;7.00;85.10
40257;DHT22;25977;45.462;9.210;2023-12-04T05:30:11;7.00;85.30
40257;DHT22;25977;45.462;9.210;2023-12-04T05:32:37;7.00;85.30
40257;DHT22;25977;45.462;9.210;2023-12-04T05:35:03;7.00;85.30
40257;DHT22;25977;45.462;9.210;2023-12-04T05:37:28;7.00;85.30
40257;DHT22;25977;45.462;9.210;2023-12-04T05:39:54;7.00;85.20
40257;DHT22;25977;45.462;9.210;2023-12-04T05:42:20;7.00;85.10
40257;DHT22;25977;45.462;9.210;2023-12-04T05:44:45;7.00;85.00
40257;DHT22;25977;45.462;9.210;2023-12-04T05:47:11;7.00;84.90
40257;DHT22;25977;45.462;9.210;2023-12-04T05:49:36;7.00;85.00
40257;DHT22;25977;45.462;9.210;2023-12-04T05:52:02;7.00;85.00
40257;DHT22;25977;45.462;9.210;2023-12-04T05:54:28;6.90;85.30
40257;DHT22;25977;45.462;9.210;2023-12-04T05:56:53;6.90;85.20
40257;DHT22;25977;45.462;9.210;2023-12-04T05:59:19;7.00;85.20
40257;DHT22;25977;45.462;9.210;2023-12-04T06:01:45;6.90;85.30
40257;DHT22;25977;45.462;9.210;2023-12-04T06:04:10;6.90;85.30
40257;DHT22;25977;45.462;9.210;2023-12-04T06:06:36;7.00;85.40
40257;DHT22;25977;45.462;9.210;2023-12-04T06:09:02;7.00;85.50
40257;DHT22;25977;45.462;9.210;2023-12-04T06:11:28;7.00;85.60
40257;DHT22;25977;45.462;9.210;2023-12-04T06:13:54;7.00;85.60
40257;DHT22;25977;45.462;9.210;2023-12-04T06:16:19;6.90;85.60
40257;DHT22;25977;45.462;9.210;2023-12-04T06:18:45;6.90;85.60
40257;DHT22;25977;45.462;9.210;2023-12-04T06:21:11;6.90;85.90
40257;DHT22;25977;45.462;9.210;2023-12-04T06:23:37;6.80;86.10
40257;DHT22;25977;45.462;9.210;2023-12-04T06:26:02;6.80;86.20
40257;DHT22;25977;45.462;9.210;2023-12-04T06:28:28;6.80;86.20
40257;DHT22;25977;45.462;9.210;2023-12-04T06:30:55;6.80;86.20
40257;DHT22;25977;45.462;9.210;2023-12-04T06:33:21;6.80;86.30
40257;DHT22;25977;45.462;9.210;2023-12-04T06:35:47;6.80;86.40
40257;DHT22;25977;45.462;9.210;2023-12-04T06:38:15;6.80;86.40
40257;DHT22;25977;45.462;9.210;2023-12-04T06:40:44;6.90;86.20
40257;DHT22;25977;45.462;9.210;2023-12-04T06:43:10;6.80;86.30
40257;DHT22;25977;45.462;9.210;2023-12-04T06:45:36;6.70;86.50
40257;DHT22;25977;45.462;9.210;2023-12-04T06:48:02;6.70;86.60
40257;DHT22;25977;45.462;9.210;2023-12-04T06:50:27;6.80;86.50
40257;DHT22;25977;45.462;9.210;2023-12-04T06:52:53;6.80;86.40
40257;DHT22;25977;45.462;9.210;2023-12-04T06:55:19;6.80;86.50
40257;DHT22;25977;45.462;9.210;2023-12-04T06:57:44;6.90;86.60
40257;DHT22;25977;45.462;9.210;2023-12-04T07:00:11;6.80;86.70
40257;DHT22;25977;45.462;9.210;2023-12-04T07:02:40;6.80;86.90
40257;DHT22;25977;45.462;9.210;2023-12-04T07:05:06;6.80;87.00
40257;DHT22;25977;45.462;9.210;2023-12-04T07:07:32;6.80;87.00
40257;DHT22;25977;45.462;9.210;2023-12-04T07:09:58;6.80;87.10
40257;DHT22;25977;45.462;9.210;2023-12-04T07:12:23;6.80;86.90
40257;DHT22;25977;45.462;9.210;2023-12-04T07:14:49;6.80;86.80
40257;DHT22;25977;45.462;9.210;2023-12-04T07:17:15;6.80;87.00
40257;DHT22;25977;45.462;9.210;2023-12-04T07:19:41;6.80;86.80
40257;DHT22;25977;45.462;9.210;2023-12-04T07:22:07;6.80;86.80
40257;DHT22;25977;45.462;9.210;2023-12-04T07:24:33;6.70;86.70
40257;DHT22;25977;45.462;9.210;2023-12-04T07:26:59;6.80;87.20
40257;DHT22;25977;45.462;9.210;2023-12-04T07:29:24;6.60;86.70
40257;DHT22;25977;45.462;9.210;2023-12-04T07:31:50;6.60;86.90
40257;DHT22;25977;45.462;9.210;2023-12-04T07:34:16;6.70;87.00
40257;DHT22;25977;45.462;9.210;2023-12-04T07:36:41;6.70;87.00
40257;DHT22;25977;45.462;9.210;2023-12-04T07:39:12;6.80;87.00
40257;DHT22;25977;45.462;9.210;2023-12-04T07:41:37;6.70;87.10
40257;DHT22;25977;45.462;9.210;2023-12-04T07:44:03;6.80;87.20
40257;DHT22;25977;45.462;9.210;2023-12-04T07:46:29;6.80;87.20
40257;DHT22;25977;45.462;9.210;2023-12-04T07:48:55;6.80;86.90
40257;DHT22;25977;45.462;9.210;2023-12-04T07:51:21;6.80;87.40
40257;DHT22;25977;45.462;9.210;2023-12-04T07:53:46;6.90;86.80
40257;DHT22;25977;45.462;9.210;2023-12-04T07:56:13;6.80;86.80
40257;DHT22;25977;45.462;9.210;2023-12-04T07:58:39;6.70;86.70
40257;DHT22;25977;45.462;9.210;2023-12-04T08:01:05;6.70;86.60
40257;DHT22;25977;45.462;9.210;2023-12-04T08:03:31;6.50;86.80
40257;DHT22;25977;45.462;9.210;2023-12-04T08:05:57;6.60;86.80
40257;DHT22;25977;45.462;9.210;2023-12-04T08:08:24;6.60;86.70
40257;DHT22;25977;45.462;9.210;2023-12-04T08:10:50;6.60;86.20
40257;DHT22;25977;45.462;9.210;2023-12-04T08:13:16;6.50;86.00
40257;DHT22;25977;45.462;9.210;2023-12-04T08:15:42;6.60;86.00
40257;DHT22;25977;45.462;9.210;2023-12-04T08:18:08;6.30;85.70
40257;DHT22;25977;45.462;9.210;2023-12-04T08:20:33;6.40;85.90
40257;DHT22;25977;45.462;9.210;2023-12-04T08:22:59;6.50;85.90
40257;DHT22;25977;45.462;9.210;2023-12-04T08:25:25;6.50;85.80
40257;DHT22;25977;45.462;9.210;2023-12-04T08:27:51;6.40;85.70
40257;DHT22;25977;45.462;9.210;2023-12-04T08:30:17;6.20;84.90
40257;DHT22;25977;45.462;9.210;2023-12-04T08:32:43;6.10;84.90
40257;DHT22;25977;45.462;9.210;2023-12-04T08:35:09;6.20;85.20
40257;DHT22;25977;45.462;9.210;2023-12-04T08:37:35;6.30;84.90
40257;DHT22;25977;45.462;9.210;2023-12-04T08:40:00;6.20;84.80
40257;DHT22;25977;45.462;9.210;2023-12-04T08:42:28;6.40;84.60
40257;DHT22;25977;45.462;9.210;2023-12-04T08:44:54;6.50;84.50
40257;DHT22;25977;45.462;9.210;2023-12-04T08:47:20;6.50;84.00
40257;DHT22;25977;45.462;9.210;2023-12-04T08:49:45;6.60;83.80
40257;DHT22;25977;45.462;9.210;2023-12-04T08:52:12;6.40;83.60
40257;DHT22;25977;45.462;9.210;2023-12-04T08:54:41;6.30;84.10
40257;DHT22;25977;45.462;9.210;2023-12-04T08:57:07;6.30;84.00
40257;DHT22;25977;45.462;9.210;2023-12-04T08:59:34;6.50;84.00
40257;DHT22;25977;45.462;9.210;2023-12-04T09:02:00;6.40;83.20
40257;DHT22;25977;45.462;9.210;2023-12-04T09:04:32;6.30;83.70
40257;DHT22;25977;45.462;9.210;2023-12-04T09:07:00;6.20;83.80
40257;DHT22;25977;45.462;9.210;2023-12-04T09:09:25;6.30;84.00
40257;DHT22;25977;45.462;9.210;2023-12-04T09:11:51;6.30;83.10
40257;DHT22;25977;45.462;9.210;2023-12-04T09:14:17;6.50;83.30
40257;DHT22;25977;45.462;9.210;2023-12-04T09:16:45;6.50;83.00
40257;DHT22;25977;45.462;9.210;2023-12-04T09:19:10;6.60;82.80
40257;DHT22;25977;45.462;9.210;2023-12-04T09:21:36;6.50;82.10
40257;DHT22;25977;45.462;9.210;2023-12-04T09:24:03;6.60;82.40
40257;DHT22;25977;45.462;9.210;2023-12-04T09:26:28;6.50;82.50
40257;DHT22;25977;45.462;9.210;2023-12-04T09:28:54;6.40;82.80
40257;DHT22;25977;45.462;9.210;2023-12-04T09:31:20;6.50;83.00
40257;DHT22;25977;45.462;9.210;2023-12-04T09:33:46;6.60;82.80
40257;DHT22;25977;45.462;9.210;2023-12-04T09:36:12;6.50;82.30
40257;DHT22;25977;45.462;9.210;2023-12-04T09:38:38;6.40;82.70
40257;DHT22;25977;45.462;9.210;2023-12-04T09:41:06;6.30;82.80
40257;DHT22;25977;45.462;9.210;2023-12-04T09:43:36;6.40;82.60
40257;DHT22;25977;45.462;9.210;2023-12-04T09:46:02;6.50;82.60
40257;DHT22;25977;45.462;9.210;2023-12-04T09:48:29;6.50;83.00
40257;DHT22;25977;45.462;9.210;2023-12-04T09:50:56;6.50;82.20
40257;DHT22;25977;45.462;9.210;2023-12-04T09:53:23;6.50;82.40
40257;DHT22;25977;45.462;9.210;2023-12-04T09:55:50;6.50;82.50
40257;DHT22;25977;45.462;9.210;2023-12-04T09:58:18;6.60;82.50
40257;DHT22;25977;45.462;9.210;2023-12-04T10:00:45;6.70;82.00
40257;DHT22;25977;45.462;9.210;2023-12-04T10:03:11;6.70;81.50
40257;DHT22;25977;45.462;9.210;2023-12-04T10:05:38;6.70;81.40
40257;DHT22;25977;45.462;9.210;2023-12-04T10:08:08;6.80;81.40
40257;DHT22;25977;45.462;9.210;2023-12-04T10:10:34;6.80;80.90
40257;DHT22;25977;45.462;9.210;2023-12-04T10:13:00;6.90;81.00
40257;DHT22;25977;45.462;9.210;2023-12-04T10:15:25;6.90;80.90
40257;DHT22;25977;45.462;9.210;2023-12-04T10:17:51;6.90;80.70
40257;DHT22;25977;45.462;9.210;2023-12-04T10:20:17;6.80;80.70
40257;DHT22;25977;45.462;9.210;2023-12-04T10:22:57;6.90;80.60
40257;DHT22;25977;45.462;9.210;2023-12-04T10:25:24;7.00;80.30
40257;DHT22;25977;45.462;9.210;2023-12-04T10:27:51;7.00;80.20
40257;DHT22;25977;45.462;9.210;2023-12-04T10:30:25;7.10;80.40
40257;DHT22;25977;45.462;9.210;2023-12-04T10:32:59;7.10;80.20
40257;DHT22;25977;45.462;9.210;2023-12-04T10:35:30;7.10;80.40
40257;DHT22;25977;45.462;9.210;2023-12-04T10:37:59;7.10;80.70
40257;DHT22;25977;45.462;9.210;2023-12-04T10:40:32;7.00;80.70
40257;DHT22;25977;45.462;9.210;2023-12-04T10:43:22;7.10;80.40
40257;DHT22;25977;45.462;9.210;2023-12-04T10:45:49;7.10;80.10
40257;DHT22;25977;45.462;9.210;2023-12-04T10:48:17;7.00;80.10
40257;DHT22;25977;45.462;9.210;2023-12-04T10:50:45;7.00;80.40
40257;DHT22;25977;45.462;9.210;2023-12-04T10:53:12;7.00;80.80
40257;DHT22;25977;45.462;9.210;2023-12-04T10:55:39;7.00;80.70
40257;DHT22;25977;45.462;9.210;2023-12-04T10:58:09;6.90;80.60
40257;DHT22;25977;45.462;9.210;2023-12-04T11:00:39;6.80;81.00
40257;DHT22;25977;45.462;9.210;2023-12-04T11:03:08;6.90;81.00
40257;DHT22;25977;45.462;9.210;2023-12-04T11:05:38;6.70;80.10
40257;DHT22;25977;45.462;9.210;2023-12-04T11:08:06;6.70;80.80
40257;DHT22;25977;45.462;9.210;2023-12-04T11:10:33;6.80;81.30
40257;DHT22;25977;45.462;9.210;2023-12-04T11:13:06;6.80;81.40
40257;DHT22;25977;45.462;9.210;2023-12-04T11:15:40;6.90;81.40
40257;DHT22;25977;45.462;9.210;2023-12-04T11:18:07;6.90;81.50
40257;DHT22;25977;45.462;9.210;2023-12-04T11:20:39;6.90;81.60
40257;DHT22;25977;45.462;9.210;2023-12-04T11:23:07;7.10;81.60
40257;DHT22;25977;45.462;9.210;2023-12-04T11:25:34;7.10;81.70
40257;DHT22;25977;45.462;9.210;2023-12-04T11:28:03;7.20;82.00
40257;DHT22;25977;45.462;9.210;2023-12-04T11:30:29;7.10;81.80
40257;DHT22;25977;45.462;9.210;2023-12-04T11:32:55;7.20;81.90
40257;DHT22;25977;45.462;9.210;2023-12-04T11:35:27;7.20;82.00
40257;DHT22;25977;45.462;9.210;2023-12-04T11:37:53;7.30;82.10
40257;DHT22;25977;45.462;9.210;2023-12-04T11:40:19;7.20;82.00
40257;DHT22;25977;45.462;9.210;2023-12-04T11:42:44;7.20;82.10
40257;DHT22;25977;45.462;9.210;2023-12-04T11:45:16;7.20;82.20
40257;DHT22;25977;45.462;9.210;2023-12-04T11:47:52;7.00;82.60
40257;DHT22;25977;45.462;9.210;2023-12-04T11:50:19;7.10;83.00
40257;DHT22;25977;45.462;9.210;2023-12-04T11:52:46;7.10;83.10
40257;DHT22;25977;45.462;9.210;2023-12-04T11:55:16;7.10;83.20
40257;DHT22;25977;45.462;9.210;2023-12-04T11:57:42;7.00;82.80
40257;DHT22;25977;45.462;9.210;2023-12-04T12:05:19;7.10;83.10
40257;DHT22;25977;45.462;9.210;2023-12-04T12:07:45;7.10;83.10
40257;DHT22;25977;45.462;9.210;2023-12-04T12:10:12;7.00;82.70
40257;DHT22;25977;45.462;9.210;2023-12-04T12:12:40;7.00;83.10
40257;DHT22;25977;45.462;9.210;2023-12-04T12:15:15;7.00;83.10
40257;DHT22;25977;45.462;9.210;2023-12-04T12:17:41;7.10;83.10
40257;DHT22;25977;45.462;9.210;2023-12-04T12:20:08;7.10;83.20
40257;DHT22;25977;45.462;9.210;2023-12-04T12:22:35;7.10;83.30
40257;DHT22;25977;45.462;9.210;2023-12-04T12:25:04;7.20;83.60
40257;DHT22;25977;45.462;9.210;2023-12-04T12:27:30;7.20;83.40
40257;DHT22;25977;45.462;9.210;2023-12-04T12:29:56;7.10;83.60
40257;DHT22;25977;45.462;9.210;2023-12-04T12:32:22;7.20;83.70
40257;DHT22;25977;45.462;9.210;2023-12-04T12:34:47;7.20;83.70
40257;DHT22;25977;45.462;9.210;2023-12-04T12:37:13;7.20;83.50
40257;DHT22;25977;45.462;9.210;2023-12-04T12:39:39;7.20;83.50
40257;DHT22;25977;45.462;9.210;2023-12-04T12:42:05;7.20;83.70
40257;DHT22;25977;45.462;9.210;2023-12-04T12:44:41;7.20;83.90
40257;DHT22;25977;45.462;9.210;2023-12-04T12:47:08;7.20;84.10
40257;DHT22;25977;45.462;9.210;2023-12-04T12:49:33;7.20;84.00
40257;DHT22;25977;45.462;9.210;2023-12-04T12:52:01;7.20;83.70
40257;DHT22;25977;45.462;9.210;2023-12-04T12:54:27;7.20;83.70
40257;DHT22;25977;45.462;9.210;2023-12-04T12:56:53;7.20;83.80
40257;DHT22;25977;45.462;9.210;2023-12-04T12:59:18;7.20;83.50
40257;DHT22;25977;45.462;9.210;2023-12-04T13:01:45;7.20;83.50
40257;DHT22;25977;45.462;9.210;2023-12-04T13:04:14;7.20;83.50
40257;DHT22;25977;45.462;9.210;2023-12-04T13:06:43;7.20;83.20
40257;DHT22;25977;45.462;9.210;2023-12-04T13:09:08;7.30;83.40
40257;DHT22;25977;45.462;9.210;2023-12-04T13:14:01;7.30;82.50
40257;DHT22;25977;45.462;9.210;2023-12-04T13:16:27;7.30;83.00
40257;DHT22;25977;45.462;9.210;2023-12-04T13:18:52;7.30;82.80
40257;DHT22;25977;45.462;9.210;2023-12-04T13:21:18;7.30;83.00
40257;DHT22;25977;45.462;9.210;2023-12-04T13:23:44;7.30;82.80
40257;DHT22;25977;45.462;9.210;2023-12-04T13:26:16;7.30;82.80
40257;DHT22;25977;45.462;9.210;2023-12-04T13:28:43;7.40;82.80
40257;DHT22;25977;45.462;9.210;2023-12-04T13:31:08;7.20;82.90
40257;DHT22;25977;45.462;9.210;2023-12-04T13:33:34;7.20;83.10
40257;DHT22;25977;45.462;9.210;2023-12-04T13:35:59;7.20;83.40
40257;DHT22;25977;45.462;9.210;2023-12-04T13:38:26;7.10;84.10
40257;DHT22;25977;45.462;9.210;2023-12-04T13:40:52;7.10;84.90
40257;DHT22;25977;45.462;9.210;2023-12-04T13:43:44;7.20;85.20
40257;DHT22;25977;45.462;9.210;2023-12-04T13:46:15;7.20;85.70
40257;DHT22;25977;45.462;9.210;2023-12-04T13:48:41;7.30;85.90
40257;DHT22;25977;45.462;9.210;2023-12-04T13:51:09;7.30;86.00
40257;DHT22;25977;45.462;9.210;2023-12-04T13:53:35;7.00;86.50
40257;DHT22;25977;45.462;9.210;2023-12-04T13:56:05;6.90;87.20
40257;DHT22;25977;45.462;9.210;2023-12-04T13:58:49;7.00;87.50
40257;DHT22;25977;45.462;9.210;2023-12-04T14:01:25;7.10;87.30
40257;DHT22;25977;45.462;9.210;2023-12-04T14:03:55;7.20;87.40
40257;DHT22;25977;45.462;9.210;2023-12-04T14:06:27;7.20;87.30
40257;DHT22;25977;45.462;9.210;2023-12-04T14:08:53;7.20;86.70
40257;DHT22;25977;45.462;9.210;2023-12-04T14:11:19;7.10;86.30
40257;DHT22;25977;45.462;9.210;2023-12-04T14:13:45;6.70;87.00
40257;DHT22;25977;45.462;9.210;2023-12-04T14:16:10;6.70;87.10
40257;DHT22;25977;45.462;9.210;2023-12-04T14:18:36;6.70;86.70
40257;DHT22;25977;45.462;9.210;2023-12-04T14:21:02;6.70;87.10
40257;DHT22;25977;45.462;9.210;2023-12-04T14:23:27;6.70;87.00
40257;DHT22;25977;45.462;9.210;2023-12-04T14:25:53;6.70;86.90
40257;DHT22;25977;45.462;9.210;2023-12-04T14:28:19;6.80;86.80
40257;DHT22;25977;45.462;9.210;2023-12-04T14:30:45;6.90;86.50
40257;DHT22;25977;45.462;9.210;2023-12-04T14:33:11;6.90;86.40
40257;DHT22;25977;45.462;9.210;2023-12-04T14:35:37;6.90;86.10
40257;DHT22;25977;45.462;9.210;2023-12-04T14:38:03;6.90;85.90
40257;DHT22;25977;45.462;9.210;2023-12-04T14:40:30;6.90;85.90
40257;DHT22;25977;45.462;9.210;2023-12-04T14:42:56;6.90;85.90
40257;DHT22;25977;45.462;9.210;2023-12-04T14:45:22;7.00;85.90
40257;DHT22;25977;45.462;9.210;2023-12-04T14:47:47;6.60;86.70
40257;DHT22;25977;45.462;9.210;2023-12-04T14:50:16;6.70;86.70
40257;DHT22;25977;45.462;9.210;2023-12-04T14:52:41;6.80;86.90
40257;DHT22;25977;45.462;9.210;2023-12-04T14:55:15;6.70;87.40
40257;DHT22;25977;45.462;9.210;2023-12-04T14:57:51;6.70;87.40
40257;DHT22;25977;45.462;9.210;2023-12-04T15:00:16;6.60;88.00
40257;DHT22;25977;45.462;9.210;2023-12-04T15:03:11;6.40;88.70
40257;DHT22;25977;45.462;9.210;2023-12-04T15:05:36;6.50;88.70
40257;DHT22;25977;45.462;9.210;2023-12-04T15:08:20;6.30;88.90
40257;DHT22;25977;45.462;9.210;2023-12-04T15:11:05;6.50;89.80
40257;DHT22;25977;45.462;9.210;2023-12-04T15:13:57;6.50;89.30
40257;DHT22;25977;45.462;9.210;2023-12-04T15:16:22;6.50;89.60
40257;DHT22;25977;45.462;9.210;2023-12-04T15:18:57;6.50;89.60
40257;DHT22;25977;45.462;9.210;2023-12-04T15:21:42;6.20;89.60
40257;DHT22;25977;45.462;9.210;2023-12-04T15:24:08;6.40;89.50
40257;DHT22;25977;45.462;9.210;2023-12-04T15:26:34;6.40;89.90
40257;DHT22;25977;45.462;9.210;2023-12-04T15:29:00;6.40;90.00
40257;DHT22;25977;45.462;9.210;2023-12-04T15:31:26;6.40;90.00
40257;DHT22;25977;45.462;9.210;2023-12-04T15:33:52;6.50;90.00
40257;DHT22;25977;45.462;9.210;2023-12-04T15:36:17;6.70;90.20
40257;DHT22;25977;45.462;9.210;2023-12-04T15:38:47;6.50;90.20
40257;DHT22;25977;45.462;9.210;2023-12-04T15:41:13;6.40;90.10
40257;DHT22;25977;45.462;9.210;2023-12-04T15:43:38;6.40;90.10
40257;DHT22;25977;45.462;9.210;2023-12-04T15:46:04;6.40;90.10
40257;DHT22;25977;45.462;9.210;2023-12-04T15:48:31;6.40;90.20
40257;DHT22;25977;45.462;9.210;2023-12-04T15:50:57;6.50;90.20